sensor_id;sensor_type;location;lat;lon;timestamp;temperature;humidity
41987;DHT22;28361;50.740;7.084;2023-05-10T09:10:43;22.50;1.00
41987;DHT22;28361;50.740;7.084;2023-05-10T09:13:10;14.20;99.90
41987;DHT22;28361;50.740;7.084;2023-05-10T09:15:36;14.00;99.90
41987;DHT22;28361;50.740;7.084;2023-05-10T09:18:01;13.80;99.90
41987;DHT22;28361;50.740;7.084;2023-05-10T09:20:27;13.70;99.90
41987;DHT22;28361;50.740;7.084;2023-05-10T09:22:53;13.80;99.90
41987;DHT22;28361;50.740;7.084;2023-05-10T09:25:19;13.80;99.90
41987;DHT22;28361;50.740;7.084;2023-05-10T09:27:47;13.80;99.90
41987;DHT22;28361;50.740;7.084;2023-05-10T09:30:17;13.90;99.90
41987;DHT22;28361;50.740;7.084;2023-05-10T09:32:48;13.90;99.90
41987;DHT22;28361;50.740;7.084;2023-05-10T09:37:43;14.00;99.90
41987;DHT22;28361;50.740;7.084;2023-05-10T09:40:25;13.90;99.90
41987;DHT22;28361;50.740;7.084;2023-05-10T09:45:27;13.90;99.90
41987;DHT22;28361;50.740;7.084;2023-05-10T09:47:54;14.10;99.90
41987;DHT22;28361;50.740;7.084;2023-05-10T09:50:20;14.20;99.90
41987;DHT22;28361;50.740;7.084;2023-05-10T09:53:07;14.30;99.90
41987;DHT22;28361;50.740;7.084;2023-05-10T09:58:06;14.40;99.90
41987;DHT22;28361;50.740;7.084;2023-05-10T10:00:43;14.40;99.90
41987;DHT22;28361;50.740;7.084;2023-05-10T10:05:43;14.50;99.90
41987;DHT22;28361;50.740;7.084;2023-05-10T10:08:09;14.90;99.90
41987;DHT22;28361;50.740;7.084;2023-05-10T10:10:35;15.10;99.90
41987;DHT22;28361;50.740;7.084;2023-05-10T10:13:01;15.00;99.90
41987;DHT22;28361;50.740;7.084;2023-05-10T10:15:27;15.20;99.90
41987;DHT22;28361;50.740;7.084;2023-05-10T10:17:53;15.60;99.90
41987;DHT22;28361;50.740;7.084;2023-05-10T10:20:20;15.60;99.90
41987;DHT22;28361;50.740;7.084;2023-05-10T10:22:46;15.70;99.90
41987;DHT22;28361;50.740;7.084;2023-05-10T10:25:14;15.60;99.90
41987;DHT22;28361;50.740;7.084;2023-05-10T10:28:34;15.60;99.90
41987;DHT22;28361;50.740;7.084;2023-05-10T10:30:55;15.50;99.90
41987;DHT22;28361;50.740;7.084;2023-05-10T10:33:39;15.40;99.90
41987;DHT22;28361;50.740;7.084;2023-05-10T10:36:06;15.20;99.90
41987;DHT22;28361;50.740;7.084;2023-05-10T10:46:59;15.30;99.90
41987;DHT22;28361;50.740;7.084;2023-05-10T10:49:26;16.20;99.90
41987;DHT22;28361;50.740;7.084;2023-05-10T10:55:06;16.80;99.90
41987;DHT22;28361;50.740;7.084;2023-05-10T10:57:51;16.50;99.90
41987;DHT22;28361;50.740;7.084;2023-05-10T11:00:28;16.10;99.90
41987;DHT22;28361;50.740;7.084;2023-05-10T11:03:15;15.70;99.90
41987;DHT22;28361;50.740;7.084;2023-05-10T11:05:48;15.80;99.90
41987;DHT22;28361;50.740;7.084;2023-05-10T11:08:31;16.20;99.90
41987;DHT22;28361;50.740;7.084;2023-05-10T11:13:31;16.90;99.90
41987;DHT22;28361;50.740;7.084;2023-05-10T11:15:58;17.60;99.90
41987;DHT22;28361;50.740;7.084;2023-05-10T11:18:29;18.20;99.90
41987;DHT22;28361;50.740;7.084;2023-05-10T11:21:01;18.50;99.90
41987;DHT22;28361;50.740;7.084;2023-05-10T11:26:07;18.40;99.90
41987;DHT22;28361;50.740;7.084;2023-05-10T11:28:45;17.50;99.90
41987;DHT22;28361;50.740;7.084;2023-05-10T11:31:13;16.80;99.90
41987;DHT22;28361;50.740;7.084;2023-05-10T11:33:49;16.90;99.90
41987;DHT22;28361;50.740;7.084;2023-05-10T11:36:20;17.30;99.90
41987;DHT22;28361;50.740;7.084;2023-05-10T11:38:46;17.50;99.90
41987;DHT22;28361;50.740;7.084;2023-05-10T11:41:12;18.20;99.90
41987;DHT22;28361;50.740;7.084;2023-05-10T11:43:42;18.20;99.90
41987;DHT22;28361;50.740;7.084;2023-05-10T11:46:12;18.00;97.30
41987;DHT22;28361;50.740;7.084;2023-05-10T11:48:41;18.30;99.90
41987;DHT22;28361;50.740;7.084;2023-05-10T11:51:08;18.20;57.40
41987;DHT22;28361;50.740;7.084;2023-05-10T11:53:34;17.90;72.90
41987;DHT22;28361;50.740;7.084;2023-05-10T11:56:09;17.60;92.30
41987;DHT22;28361;50.740;7.084;2023-05-10T11:58:36;17.10;99.90
41987;DHT22;28361;50.740;7.084;2023-05-10T12:01:03;17.50;99.90
41987;DHT22;28361;50.740;7.084;2023-05-10T12:03:29;17.30;99.90
41987;DHT22;28361;50.740;7.084;2023-05-10T12:05:56;17.30;99.90
41987;DHT22;28361;50.740;7.084;2023-05-10T12:08:24;17.10;96.60
41987;DHT22;28361;50.740;7.084;2023-05-10T12:10:51;16.80;99.90
41987;DHT22;28361;50.740;7.084;2023-05-10T12:13:17;16.80;99.90
41987;DHT22;28361;50.740;7.084;2023-05-10T12:15:43;17.00;99.90
41987;DHT22;28361;50.740;7.084;2023-05-10T12:18:22;17.20;99.90
41987;DHT22;28361;50.740;7.084;2023-05-10T12:20:47;17.30;99.90
41987;DHT22;28361;50.740;7.084;2023-05-10T12:23:13;17.30;99.90
41987;DHT22;28361;50.740;7.084;2023-05-10T12:25:39;17.20;99.90
41987;DHT22;28361;50.740;7.084;2023-05-10T12:28:08;17.20;99.90
41987;DHT22;28361;50.740;7.084;2023-05-10T12:30:36;17.20;99.90
41987;DHT22;28361;50.740;7.084;2023-05-10T12:33:10;17.30;99.90
41987;DHT22;28361;50.740;7.084;2023-05-10T12:35:50;17.30;99.90
41987;DHT22;28361;50.740;7.084;2023-05-10T12:40:56;17.20;99.90
41987;DHT22;28361;50.740;7.084;2023-05-10T12:43:22;17.10;99.80
41987;DHT22;28361;50.740;7.084;2023-05-10T12:45:48;16.70;99.90
41987;DHT22;28361;50.740;7.084;2023-05-10T12:48:14;16.60;99.90
41987;DHT22;28361;50.740;7.084;2023-05-10T12:50:40;16.50;99.90
41987;DHT22;28361;50.740;7.084;2023-05-10T12:53:06;16.50;99.90
41987;DHT22;28361;50.740;7.084;2023-05-10T12:55:31;16.50;99.90
41987;DHT22;28361;50.740;7.084;2023-05-10T12:57:57;16.40;99.90
41987;DHT22;28361;50.740;7.084;2023-05-10T13:00:23;16.50;99.90
41987;DHT22;28361;50.740;7.084;2023-05-10T13:02:48;16.60;99.90
41987;DHT22;28361;50.740;7.084;2023-05-10T13:05:14;16.70;99.90
41987;DHT22;28361;50.740;7.084;2023-05-10T13:07:40;16.60;99.90
41987;DHT22;28361;50.740;7.084;2023-05-10T13:10:06;16.50;99.90
41987;DHT22;28361;50.740;7.084;2023-05-10T13:12:32;16.40;99.90
41987;DHT22;28361;50.740;7.084;2023-05-10T13:14:58;16.50;99.90
41987;DHT22;28361;50.740;7.084;2023-05-10T13:17:25;16.60;99.90
41987;DHT22;28361;50.740;7.084;2023-05-10T13:19:51;17.00;99.90
41987;DHT22;28361;50.740;7.084;2023-05-10T13:22:16;17.20;99.90
41987;DHT22;28361;50.740;7.084;2023-05-10T13:24:42;17.60;99.90
41987;DHT22;28361;50.740;7.084;2023-05-10T13:27:08;18.10;99.90
41987;DHT22;28361;50.740;7.084;2023-05-10T13:29:34;18.30;99.90
41987;DHT22;28361;50.740;7.084;2023-05-10T13:31:59;18.20;99.90
41987;DHT22;28361;50.740;7.084;2023-05-10T13:34:26;18.20;97.40
41987;DHT22;28361;50.740;7.084;2023-05-10T13:36:52;17.90;99.90
41987;DHT22;28361;50.740;7.084;2023-05-10T13:39:19;17.60;99.90
41987;DHT22;28361;50.740;7.084;2023-05-10T13:41:45;17.40;99.90
41987;DHT22;28361;50.740;7.084;2023-05-10T13:44:12;17.40;91.50
41987;DHT22;28361;50.740;7.084;2023-05-10T13:46:39;17.20;99.90
41987;DHT22;28361;50.740;7.084;2023-05-10T13:49:05;17.00;99.90
41987;DHT22;28361;50.740;7.084;2023-05-10T13:51:30;16.90;99.90
41987;DHT22;28361;50.740;7.084;2023-05-10T13:53:59;16.80;99.90
41987;DHT22;28361;50.740;7.084;2023-05-10T13:56:24;16.70;99.90
41987;DHT22;28361;50.740;7.084;2023-05-10T13:58:50;16.70;99.90
41987;DHT22;28361;50.740;7.084;2023-05-10T14:01:16;16.70;99.90
41987;DHT22;28361;50.740;7.084;2023-05-10T14:03:42;16.50;99.90
41987;DHT22;28361;50.740;7.084;2023-05-10T14:06:08;16.50;99.90
41987;DHT22;28361;50.740;7.084;2023-05-10T14:08:34;16.30;99.90
41987;DHT22;28361;50.740;7.084;2023-05-10T14:11:00;16.30;99.90
41987;DHT22;28361;50.740;7.084;2023-05-10T14:13:26;16.20;99.90
41987;DHT22;28361;50.740;7.084;2023-05-10T14:15:53;16.10;99.90
41987;DHT22;28361;50.740;7.084;2023-05-10T14:18:19;16.20;99.90
41987;DHT22;28361;50.740;7.084;2023-05-10T14:20:44;16.20;99.90
41987;DHT22;28361;50.740;7.084;2023-05-10T14:23:10;16.20;99.90
41987;DHT22;28361;50.740;7.084;2023-05-10T14:25:36;16.10;99.90
41987;DHT22;28361;50.740;7.084;2023-05-10T14:28:03;16.10;99.90
41987;DHT22;28361;50.740;7.084;2023-05-10T14:30:29;16.10;99.90
41987;DHT22;28361;50.740;7.084;2023-05-10T14:32:54;16.00;99.90
41987;DHT22;28361;50.740;7.084;2023-05-10T14:35:20;16.00;99.90
41987;DHT22;28361;50.740;7.084;2023-05-10T14:37:46;16.00;99.90
41987;DHT22;28361;50.740;7.084;2023-05-10T14:40:12;15.90;99.90
41987;DHT22;28361;50.740;7.084;2023-05-10T14:42:39;15.90;99.90
41987;DHT22;28361;50.740;7.084;2023-05-10T14:45:05;16.00;99.90
41987;DHT22;28361;50.740;7.084;2023-05-10T14:47:31;16.20;99.90
41987;DHT22;28361;50.740;7.084;2023-05-10T14:49:56;16.50;99.90
41987;DHT22;28361;50.740;7.084;2023-05-10T14:52:22;16.80;99.90
41987;DHT22;28361;50.740;7.084;2023-05-10T14:54:47;16.80;99.90
41987;DHT22;28361;50.740;7.084;2023-05-10T14:57:13;16.60;99.90
41987;DHT22;28361;50.740;7.084;2023-05-10T14:59:39;16.20;99.90
41987;DHT22;28361;50.740;7.084;2023-05-10T15:02:05;15.90;99.90
41987;DHT22;28361;50.740;7.084;2023-05-10T15:04:31;15.60;99.90
41987;DHT22;28361;50.740;7.084;2023-05-10T15:06:56;15.50;99.90
41987;DHT22;28361;50.740;7.084;2023-05-10T15:09:24;15.50;99.90
41987;DHT22;28361;50.740;7.084;2023-05-10T15:11:50;15.60;99.90
41987;DHT22;28361;50.740;7.084;2023-05-10T15:14:16;15.50;99.90
41987;DHT22;28361;50.740;7.084;2023-05-10T15:16:42;15.40;99.90
41987;DHT22;28361;50.740;7.084;2023-05-10T15:19:07;15.30;99.90
41987;DHT22;28361;50.740;7.084;2023-05-10T15:21:33;15.10;99.90
41987;DHT22;28361;50.740;7.084;2023-05-10T15:24:05;15.20;99.90
41987;DHT22;28361;50.740;7.084;2023-05-10T15:26:31;15.20;99.90
41987;DHT22;28361;50.740;7.084;2023-05-10T15:28:57;15.30;99.90
41987;DHT22;28361;50.740;7.084;2023-05-10T15:31:22;15.10;99.90
41987;DHT22;28361;50.740;7.084;2023-05-10T15:33:48;15.00;99.90
41987;DHT22;28361;50.740;7.084;2023-05-10T15:36:13;15.00;99.90
41987;DHT22;28361;50.740;7.084;2023-05-10T15:38:39;14.80;99.90
41987;DHT22;28361;50.740;7.084;2023-05-10T15:41:05;14.50;99.90
41987;DHT22;28361;50.740;7.084;2023-05-10T15:43:31;14.30;99.90
41987;DHT22;28361;50.740;7.084;2023-05-10T15:45:56;14.20;99.90
41987;DHT22;28361;50.740;7.084;2023-05-10T15:48:22;14.10;99.90
41987;DHT22;28361;50.740;7.084;2023-05-10T15:50:47;14.10;99.90
41987;DHT22;28361;50.740;7.084;2023-05-10T15:53:13;14.10;99.90
41987;DHT22;28361;50.740;7.084;2023-05-10T15:55:39;14.10;99.90
41987;DHT22;28361;50.740;7.084;2023-05-10T15:58:04;14.10;99.90
41987;DHT22;28361;50.740;7.084;2023-05-10T16:00:30;14.20;99.90
41987;DHT22;28361;50.740;7.084;2023-05-10T16:02:56;14.50;99.90
41987;DHT22;28361;50.740;7.084;2023-05-10T16:05:21;14.50;99.90
41987;DHT22;28361;50.740;7.084;2023-05-10T16:07:47;14.80;99.90
41987;DHT22;28361;50.740;7.084;2023-05-10T16:10:13;15.00;99.90
41987;DHT22;28361;50.740;7.084;2023-05-10T16:12:39;15.30;99.90
41987;DHT22;28361;50.740;7.084;2023-05-10T16:15:05;15.30;99.90
41987;DHT22;28361;50.740;7.084;2023-05-10T16:17:31;15.30;99.90
41987;DHT22;28361;50.740;7.084;2023-05-10T16:19:57;15.20;99.90
41987;DHT22;28361;50.740;7.084;2023-05-10T16:22:24;15.10;99.90
41987;DHT22;28361;50.740;7.084;2023-05-10T16:24:51;15.10;99.90
41987;DHT22;28361;50.740;7.084;2023-05-10T16:27:18;15.10;99.90
41987;DHT22;28361;50.740;7.084;2023-05-10T16:29:44;15.20;99.90
41987;DHT22;28361;50.740;7.084;2023-05-10T16:32:11;15.10;99.90
41987;DHT22;28361;50.740;7.084;2023-05-10T16:34:36;15.20;99.90
41987;DHT22;28361;50.740;7.084;2023-05-10T16:37:02;15.20;99.90
41987;DHT22;28361;50.740;7.084;2023-05-10T16:39:27;15.30;99.90
41987;DHT22;28361;50.740;7.084;2023-05-10T16:41:53;15.20;99.90
41987;DHT22;28361;50.740;7.084;2023-05-10T16:44:18;15.30;99.90
41987;DHT22;28361;50.740;7.084;2023-05-10T16:46:44;15.80;99.90
41987;DHT22;28361;50.740;7.084;2023-05-10T16:49:10;16.00;99.90
41987;DHT22;28361;50.740;7.084;2023-05-10T16:51:36;16.10;99.90
41987;DHT22;28361;50.740;7.084;2023-05-10T16:54:02;16.10;99.90
41987;DHT22;28361;50.740;7.084;2023-05-10T16:56:28;15.80;99.90
41987;DHT22;28361;50.740;7.084;2023-05-10T16:58:54;15.80;99.90
41987;DHT22;28361;50.740;7.084;2023-05-10T17:01:19;15.60;99.90
41987;DHT22;28361;50.740;7.084;2023-05-10T17:03:45;15.60;99.90
41987;DHT22;28361;50.740;7.084;2023-05-10T17:06:11;15.40;99.90
41987;DHT22;28361;50.740;7.084;2023-05-10T17:08:37;15.30;99.90
41987;DHT22;28361;50.740;7.084;2023-05-10T17:11:03;15.40;99.90
41987;DHT22;28361;50.740;7.084;2023-05-10T17:13:29;15.30;99.90
41987;DHT22;28361;50.740;7.084;2023-05-10T17:15:55;15.20;99.90
41987;DHT22;28361;50.740;7.084;2023-05-10T17:18:21;15.10;99.90
41987;DHT22;28361;50.740;7.084;2023-05-10T17:20:46;15.10;99.90
41987;DHT22;28361;50.740;7.084;2023-05-10T17:23:12;15.10;99.90
41987;DHT22;28361;50.740;7.084;2023-05-10T17:25:38;15.30;99.90
41987;DHT22;28361;50.740;7.084;2023-05-10T17:28:04;15.30;99.90
41987;DHT22;28361;50.740;7.084;2023-05-10T17:30:30;15.20;99.90
41987;DHT22;28361;50.740;7.084;2023-05-10T17:33:00;15.20;99.90
41987;DHT22;28361;50.740;7.084;2023-05-10T17:35:26;15.10;99.90
41987;DHT22;28361;50.740;7.084;2023-05-10T17:37:52;15.10;99.90
41987;DHT22;28361;50.740;7.084;2023-05-10T17:40:18;15.00;99.90
41987;DHT22;28361;50.740;7.084;2023-05-10T17:42:44;15.00;99.90
41987;DHT22;28361;50.740;7.084;2023-05-10T17:45:10;15.00;99.90
41987;DHT22;28361;50.740;7.084;2023-05-10T17:47:36;15.10;99.90
41987;DHT22;28361;50.740;7.084;2023-05-10T17:50:02;15.10;99.90
41987;DHT22;28361;50.740;7.084;2023-05-10T17:52:28;15.10;99.90
41987;DHT22;28361;50.740;7.084;2023-05-10T17:54:53;15.00;99.90
41987;DHT22;28361;50.740;7.084;2023-05-10T17:57:19;15.00;99.90
41987;DHT22;28361;50.740;7.084;2023-05-10T17:59:45;14.80;99.90
41987;DHT22;28361;50.740;7.084;2023-05-10T18:02:12;14.90;99.90
41987;DHT22;28361;50.740;7.084;2023-05-10T18:04:39;14.90;99.90
41987;DHT22;28361;50.740;7.084;2023-05-10T18:07:04;14.90;99.90
41987;DHT22;28361;50.740;7.084;2023-05-10T18:09:30;14.90;99.90
41987;DHT22;28361;50.740;7.084;2023-05-10T18:11:56;15.00;99.90
41987;DHT22;28361;50.740;7.084;2023-05-10T18:14:21;15.00;99.90
41987;DHT22;28361;50.740;7.084;2023-05-10T18:16:47;15.00;99.90
41987;DHT22;28361;50.740;7.084;2023-05-10T18:19:13;14.90;99.90
41987;DHT22;28361;50.740;7.084;2023-05-10T18:21:39;14.90;99.90
41987;DHT22;28361;50.740;7.084;2023-05-10T18:24:04;14.90;99.90
41987;DHT22;28361;50.740;7.084;2023-05-10T18:26:30;14.90;99.90
41987;DHT22;28361;50.740;7.084;2023-05-10T18:28:56;14.90;99.90
41987;DHT22;28361;50.740;7.084;2023-05-10T18:31:22;14.80;99.90
41987;DHT22;28361;50.740;7.084;2023-05-10T18:33:48;14.80;99.90
41987;DHT22;28361;50.740;7.084;2023-05-10T18:36:13;14.80;99.90
41987;DHT22;28361;50.740;7.084;2023-05-10T18:38:39;14.70;99.90
41987;DHT22;28361;50.740;7.084;2023-05-10T18:41:05;14.60;99.90
41987;DHT22;28361;50.740;7.084;2023-05-10T18:43:31;14.60;99.90
41987;DHT22;28361;50.740;7.084;2023-05-10T18:45:59;14.60;99.90
41987;DHT22;28361;50.740;7.084;2023-05-10T18:48:25;14.70;99.90
41987;DHT22;28361;50.740;7.084;2023-05-10T18:50:51;14.70;99.90
41987;DHT22;28361;50.740;7.084;2023-05-10T18:53:17;14.60;99.90
41987;DHT22;28361;50.740;7.084;2023-05-10T18:55:43;14.60;99.90
41987;DHT22;28361;50.740;7.084;2023-05-10T18:58:08;14.50;99.90
41987;DHT22;28361;50.740;7.084;2023-05-10T19:00:34;14.50;99.90
41987;DHT22;28361;50.740;7.084;2023-05-10T19:03:00;14.40;99.90
41987;DHT22;28361;50.740;7.084;2023-05-10T19:05:25;14.40;99.90
41987;DHT22;28361;50.740;7.084;2023-05-10T19:07:55;14.40;99.90
41987;DHT22;28361;50.740;7.084;2023-05-10T19:10:21;14.40;99.90
41987;DHT22;28361;50.740;7.084;2023-05-10T19:12:46;14.30;99.90
41987;DHT22;28361;50.740;7.084;2023-05-10T19:15:12;14.30;99.90
41987;DHT22;28361;50.740;7.084;2023-05-10T19:17:39;14.30;99.90
41987;DHT22;28361;50.740;7.084;2023-05-10T19:20:05;14.30;99.90
41987;DHT22;28361;50.740;7.084;2023-05-10T19:22:32;14.30;99.90
41987;DHT22;28361;50.740;7.084;2023-05-10T19:24:57;14.20;99.90
41987;DHT22;28361;50.740;7.084;2023-05-10T19:27:23;14.20;99.90
41987;DHT22;28361;50.740;7.084;2023-05-10T19:29:49;14.10;99.90
41987;DHT22;28361;50.740;7.084;2023-05-10T19:32:15;14.10;99.90
41987;DHT22;28361;50.740;7.084;2023-05-10T19:34:41;14.10;99.90
41987;DHT22;28361;50.740;7.084;2023-05-10T19:37:07;14.10;99.90
41987;DHT22;28361;50.740;7.084;2023-05-10T19:39:32;14.00;99.90
41987;DHT22;28361;50.740;7.084;2023-05-10T19:41:58;14.00;99.90
41987;DHT22;28361;50.740;7.084;2023-05-10T19:44:25;14.00;99.90
41987;DHT22;28361;50.740;7.084;2023-05-10T19:46:50;13.90;99.90
41987;DHT22;28361;50.740;7.084;2023-05-10T19:49:16;13.80;99.90
41987;DHT22;28361;50.740;7.084;2023-05-10T19:51:42;13.70;99.90
41987;DHT22;28361;50.740;7.084;2023-05-10T19:54:07;13.70;99.90
41987;DHT22;28361;50.740;7.084;2023-05-10T19:56:33;13.70;99.90
41987;DHT22;28361;50.740;7.084;2023-05-10T19:58:59;13.80;99.90
41987;DHT22;28361;50.740;7.084;2023-05-10T20:01:27;13.70;99.90
41987;DHT22;28361;50.740;7.084;2023-05-10T20:03:52;13.70;99.90
41987;DHT22;28361;50.740;7.084;2023-05-10T20:06:18;13.80;99.90
41987;DHT22;28361;50.740;7.084;2023-05-10T20:08:44;13.70;99.90
41987;DHT22;28361;50.740;7.084;2023-05-10T20:11:09;13.70;99.90
41987;DHT22;28361;50.740;7.084;2023-05-10T20:13:35;13.60;99.90
41987;DHT22;28361;50.740;7.084;2023-05-10T20:16:01;13.60;99.90
41987;DHT22;28361;50.740;7.084;2023-05-10T20:18:29;13.60;99.90
41987;DHT22;28361;50.740;7.084;2023-05-10T20:20:58;13.60;99.90
41987;DHT22;28361;50.740;7.084;2023-05-10T20:23:24;13.50;99.90
41987;DHT22;28361;50.740;7.084;2023-05-10T20:25:50;13.50;99.90
41987;DHT22;28361;50.740;7.084;2023-05-10T20:28:23;13.40;99.90
41987;DHT22;28361;50.740;7.084;2023-05-10T20:30:51;13.40;99.90
41987;DHT22;28361;50.740;7.084;2023-05-10T20:33:17;13.50;99.90
41987;DHT22;28361;50.740;7.084;2023-05-10T20:35:43;13.50;99.90
41987;DHT22;28361;50.740;7.084;2023-05-10T20:38:09;13.50;99.90
41987;DHT22;28361;50.740;7.084;2023-05-10T20:40:34;13.40;99.90
41987;DHT22;28361;50.740;7.084;2023-05-10T20:43:01;13.30;99.90
41987;DHT22;28361;50.740;7.084;2023-05-10T20:45:27;13.30;99.90
41987;DHT22;28361;50.740;7.084;2023-05-10T20:47:52;13.30;99.90
41987;DHT22;28361;50.740;7.084;2023-05-10T20:50:18;13.30;99.90
41987;DHT22;28361;50.740;7.084;2023-05-10T20:52:44;13.30;99.90
41987;DHT22;28361;50.740;7.084;2023-05-10T20:55:09;13.30;99.90
41987;DHT22;28361;50.740;7.084;2023-05-10T20:57:35;13.30;99.90
41987;DHT22;28361;50.740;7.084;2023-05-10T21:00:01;13.30;99.90
41987;DHT22;28361;50.740;7.084;2023-05-10T21:02:27;13.30;99.90
41987;DHT22;28361;50.740;7.084;2023-05-10T21:04:53;13.30;99.90
41987;DHT22;28361;50.740;7.084;2023-05-10T21:07:18;13.30;99.90
41987;DHT22;28361;50.740;7.084;2023-05-10T21:09:44;13.30;99.90
41987;DHT22;28361;50.740;7.084;2023-05-10T21:12:10;13.30;99.90
41987;DHT22;28361;50.740;7.084;2023-05-10T21:14:35;13.40;99.90
41987;DHT22;28361;50.740;7.084;2023-05-10T21:17:01;13.40;99.90
41987;DHT22;28361;50.740;7.084;2023-05-10T21:19:27;13.20;99.90
41987;DHT22;28361;50.740;7.084;2023-05-10T21:21:52;13.20;99.90
41987;DHT22;28361;50.740;7.084;2023-05-10T21:24:20;13.30;99.90
41987;DHT22;28361;50.740;7.084;2023-05-10T21:26:46;13.20;99.90
41987;DHT22;28361;50.740;7.084;2023-05-10T21:29:11;13.10;99.90
41987;DHT22;28361;50.740;7.084;2023-05-10T21:31:37;13.00;99.90
41987;DHT22;28361;50.740;7.084;2023-05-10T21:34:03;12.90;99.90
41987;DHT22;28361;50.740;7.084;2023-05-10T21:36:28;12.90;99.90
41987;DHT22;28361;50.740;7.084;2023-05-10T21:38:54;12.90;99.90
41987;DHT22;28361;50.740;7.084;2023-05-10T21:41:20;12.90;99.90
41987;DHT22;28361;50.740;7.084;2023-05-10T21:43:46;12.80;99.90
41987;DHT22;28361;50.740;7.084;2023-05-10T21:46:11;12.90;99.90
41987;DHT22;28361;50.740;7.084;2023-05-10T21:48:38;12.80;99.90
41987;DHT22;28361;50.740;7.084;2023-05-10T21:51:04;12.80;99.90
41987;DHT22;28361;50.740;7.084;2023-05-10T21:53:29;12.70;99.90
41987;DHT22;28361;50.740;7.084;2023-05-10T21:55:55;12.70;99.90
41987;DHT22;28361;50.740;7.084;2023-05-10T21:58:21;12.70;99.90
41987;DHT22;28361;50.740;7.084;2023-05-10T22:00:47;12.70;99.90
41987;DHT22;28361;50.740;7.084;2023-05-10T22:03:13;12.70;99.90
41987;DHT22;28361;50.740;7.084;2023-05-10T22:05:38;12.80;99.90
41987;DHT22;28361;50.740;7.084;2023-05-10T22:08:05;12.80;99.90
41987;DHT22;28361;50.740;7.084;2023-05-10T22:10:30;12.70;99.90
41987;DHT22;28361;50.740;7.084;2023-05-10T22:12:57;12.70;99.90
41987;DHT22;28361;50.740;7.084;2023-05-10T22:15:24;12.70;99.90
41987;DHT22;28361;50.740;7.084;2023-05-10T22:17:50;12.80;99.90
41987;DHT22;28361;50.740;7.084;2023-05-10T22:20:16;12.80;99.90
41987;DHT22;28361;50.740;7.084;2023-05-10T22:22:43;12.70;99.90
41987;DHT22;28361;50.740;7.084;2023-05-10T22:25:09;12.50;99.90
41987;DHT22;28361;50.740;7.084;2023-05-10T22:27:35;12.60;99.90
41987;DHT22;28361;50.740;7.084;2023-05-10T22:30:01;12.50;99.90
41987;DHT22;28361;50.740;7.084;2023-05-10T22:32:27;12.60;99.90
41987;DHT22;28361;50.740;7.084;2023-05-10T22:34:52;12.70;99.90
41987;DHT22;28361;50.740;7.084;2023-05-10T22:37:18;12.60;99.90
41987;DHT22;28361;50.740;7.084;2023-05-10T22:39:47;12.70;99.90
41987;DHT22;28361;50.740;7.084;2023-05-10T22:42:13;12.70;99.90
41987;DHT22;28361;50.740;7.084;2023-05-10T22:44:38;12.60;99.90
41987;DHT22;28361;50.740;7.084;2023-05-10T22:47:04;12.60;99.90
41987;DHT22;28361;50.740;7.084;2023-05-10T22:49:32;12.60;99.90
41987;DHT22;28361;50.740;7.084;2023-05-10T22:51:57;12.70;99.90
41987;DHT22;28361;50.740;7.084;2023-05-10T22:54:23;12.60;99.90
41987;DHT22;28361;50.740;7.084;2023-05-10T22:56:49;12.50;99.90
41987;DHT22;28361;50.740;7.084;2023-05-10T22:59:14;12.50;99.90
41987;DHT22;28361;50.740;7.084;2023-05-10T23:01:40;12.50;99.90
41987;DHT22;28361;50.740;7.084;2023-05-10T23:04:06;12.40;99.90
41987;DHT22;28361;50.740;7.084;2023-05-10T23:06:31;12.40;99.90
41987;DHT22;28361;50.740;7.084;2023-05-10T23:08:57;12.20;99.90
41987;DHT22;28361;50.740;7.084;2023-05-10T23:11:23;12.20;99.90
41987;DHT22;28361;50.740;7.084;2023-05-10T23:13:49;12.10;99.90
41987;DHT22;28361;50.740;7.084;2023-05-10T23:16:15;12.00;99.90
41987;DHT22;28361;50.740;7.084;2023-05-10T23:18:41;12.00;99.90
41987;DHT22;28361;50.740;7.084;2023-05-10T23:21:07;11.90;99.90
41987;DHT22;28361;50.740;7.084;2023-05-10T23:23:32;12.00;99.90
41987;DHT22;28361;50.740;7.084;2023-05-10T23:26:01;11.90;99.90
41987;DHT22;28361;50.740;7.084;2023-05-10T23:28:28;12.00;99.90
41987;DHT22;28361;50.740;7.084;2023-05-10T23:30:57;12.00;99.90
41987;DHT22;28361;50.740;7.084;2023-05-10T23:33:24;11.90;99.90
41987;DHT22;28361;50.740;7.084;2023-05-10T23:35:50;11.90;99.90
41987;DHT22;28361;50.740;7.084;2023-05-10T23:38:15;12.00;99.90
41987;DHT22;28361;50.740;7.084;2023-05-10T23:40:41;11.90;99.90
41987;DHT22;28361;50.740;7.084;2023-05-10T23:43:07;11.80;99.90
41987;DHT22;28361;50.740;7.084;2023-05-10T23:45:33;11.80;99.90
41987;DHT22;28361;50.740;7.084;2023-05-10T23:47:59;11.80;99.90
41987;DHT22;28361;50.740;7.084;2023-05-10T23:50:24;11.80;99.90
41987;DHT22;28361;50.740;7.084;2023-05-10T23:52:50;11.80;99.90
41987;DHT22;28361;50.740;7.084;2023-05-10T23:55:16;11.80;99.90
41987;DHT22;28361;50.740;7.084;2023-05-10T23:57:42;11.80;99.90
